Time;durP1;ratioP1;P1;durP2;ratioP2;P2;SDS_P1;SDS_P2;PMS_P1;PMS_P2;Temp;Humidity;BMP_temperature;BMP_pressure;BME280_temperature;BME280_humidity;BME280_pressure;Samples;Min_cycle;Max_cycle;Signal;HPM_P1;HPM_P2
2022/11/19 00:00:18;;;;;;;18.52;11.02;;;4.70;99.90;;;;;;5096968;28;20036;-70
2022/11/19 00:02:44;;;;;;;19.35;11.95;;;4.70;99.90;;;;;;5092131;28;20058;-69
2022/11/19 00:05:09;;;;;;;20.90;11.23;;;4.70;99.90;;;;;;5092838;28;20024;-69
2022/11/19 00:07:35;;;;;;;18.35;10.10;;;4.70;99.90;;;;;;5092770;28;20098;-69
2022/11/19 00:10:01;;;;;;;20.50;11.18;;;4.70;99.90;;;;;;5091228;28;20517;-71
2022/11/19 00:15:11;;;;;;;20.73;10.38;;;4.70;99.90;;;;;;5091754;28;20170;-70
2022/11/19 00:17:36;;;;;;;16.77;9.93;;;4.70;99.90;;;;;;5091721;28;20114;-71
2022/11/19 00:20:02;;;;;;;18.42;10.15;;;4.70;99.90;;;;;;5082850;28;20411;-69
2022/11/19 00:22:27;;;;;;;19.83;10.73;;;4.70;99.90;;;;;;5069761;28;20040;-70
2022/11/19 00:24:56;;;;;;;18.58;10.13;;;4.70;99.90;;;;;;5072112;28;20017;-70
2022/11/19 00:27:22;;;;;;;19.83;10.90;;;4.70;99.90;;;;;;5070415;28;20028;-70
2022/11/19 00:29:47;;;;;;;18.08;11.40;;;4.70;99.90;;;;;;5071640;28;20048;-71
2022/11/19 00:32:13;;;;;;;17.63;10.60;;;4.70;99.90;;;;;;5089033;28;20028;-70
2022/11/19 00:34:38;;;;;;;17.73;10.05;;;4.70;99.90;;;;;;5091982;28;20069;-70
2022/11/19 00:37:04;;;;;;;19.73;10.38;;;4.70;99.90;;;;;;5091258;28;20503;-70
2022/11/19 00:39:29;;;;;;;19.58;10.45;;;4.70;99.90;;;;;;5089785;28;20036;-70
2022/11/19 00:41:55;;;;;;;21.05;10.02;;;4.60;99.90;;;;;;5092265;28;20035;-69
2022/11/19 00:44:21;;;;;;;21.40;10.10;;;4.60;99.90;;;;;;5089661;28;20016;-70
2022/11/19 00:46:46;;;;;;;18.17;10.27;;;4.50;99.90;;;;;;5092197;28;20058;-69
2022/11/19 00:49:12;;;;;;;20.65;11.48;;;4.50;99.90;;;;;;5091034;28;20070;-70
2022/11/19 00:51:37;;;;;;;20.38;10.95;;;4.50;99.90;;;;;;5089066;28;20130;-70
2022/11/19 00:54:03;;;;;;;19.92;10.50;;;4.50;99.90;;;;;;5092070;28;20024;-70
2022/11/19 00:56:29;;;;;;;19.33;10.63;;;4.50;99.90;;;;;;5091271;28;20050;-70
2022/11/19 00:58:55;;;;;;;21.98;10.45;;;4.50;99.90;;;;;;5079559;28;20024;-68
2022/11/19 01:01:21;;;;;;;20.80;10.43;;;4.50;99.90;;;;;;5081153;28;20024;-69
2022/11/19 01:03:47;;;;;;;19.77;10.93;;;4.50;99.90;;;;;;5074589;28;20037;-70
2022/11/19 01:06:16;;;;;;;19.45;10.25;;;4.50;99.90;;;;;;5070572;28;20464;-70
2022/11/19 01:08:41;;;;;;;21.35;11.15;;;4.50;99.90;;;;;;5070484;28;20046;-70
2022/11/19 01:11:20;;;;;;;18.52;11.20;;;4.50;99.90;;;;;;5091054;28;20027;-69
2022/11/19 01:13:46;;;;;;;20.02;10.63;;;4.40;99.90;;;;;;5091255;28;20027;-69
2022/11/19 01:16:14;;;;;;;22.05;11.68;;;4.40;99.90;;;;;;5091051;28;20054;-69
2022/11/19 01:18:41;;;;;;;20.65;11.18;;;4.40;99.90;;;;;;5088182;28;20468;-70
2022/11/19 01:21:09;;;;;;;23.50;13.00;;;4.30;99.90;;;;;;5075932;28;20095;-70
2022/11/19 01:23:35;;;;;;;23.85;11.80;;;4.30;99.90;;;;;;5091261;28;20020;-70
2022/11/19 01:26:01;;;;;;;22.95;12.57;;;4.30;99.90;;;;;;5074465;28;20090;-69
2022/11/19 01:28:27;;;;;;;24.30;12.20;;;4.20;99.90;;;;;;5086310;28;20493;-68
2022/11/19 01:30:52;;;;;;;24.35;12.82;;;4.20;99.90;;;;;;5090321;28;20028;-70
2022/11/19 01:33:18;;;;;;;24.92;12.65;;;4.10;99.90;;;;;;5090179;28;20036;-69
2022/11/19 01:35:56;;;;;;;23.77;12.45;;;4.10;99.90;;;;;;5091428;28;20016;-69
2022/11/19 01:38:22;;;;;;;21.65;12.15;;;4.10;99.90;;;;;;5090486;28;20096;-70
2022/11/19 01:40:48;;;;;;;28.58;12.80;;;4.00;99.90;;;;;;5089558;28;20032;-70
2022/11/19 01:43:13;;;;;;;21.20;10.40;;;4.00;99.90;;;;;;5090651;28;20043;-70
2022/11/19 01:45:47;;;;;;;24.10;12.80;;;4.00;99.90;;;;;;5091252;28;20100;-70
2022/11/19 01:48:28;;;;;;;23.33;12.80;;;4.00;99.90;;;;;;5089714;28;20020;-70
2022/11/19 01:51:03;;;;;;;27.40;13.47;;;4.00;99.90;;;;;;5072789;28;20107;-71
2022/11/19 01:53:32;;;;;;;24.77;12.93;;;4.00;99.90;;;;;;5069139;28;20271;-71
2022/11/19 01:56:02;;;;;;;26.92;14.68;;;4.00;99.90;;;;;;5070747;28;20043;-70
2022/11/19 01:58:31;;;;;;;29.20;14.33;;;4.00;99.90;;;;;;5070576;28;20028;-70
2022/11/19 02:00:56;;;;;;;28.08;14.55;;;3.90;99.90;;;;;;5085536;28;20059;-70
2022/11/19 02:03:24;;;;;;;26.27;13.98;;;3.90;99.90;;;;;;5089494;28;20055;-69
2022/11/19 02:05:50;;;;;;;27.90;14.57;;;3.90;99.90;;;;;;5071264;28;20070;-69
2022/11/19 02:08:37;;;;;;;27.35;14.88;;;3.80;99.90;;;;;;5068987;28;20046;-69
2022/11/19 02:11:44;;;;;;;28.63;15.32;;;3.80;99.90;;;;;;5090067;28;20398;-68
2022/11/19 02:14:32;;;;;;;28.83;14.73;;;3.80;99.90;;;;;;5089839;28;20028;-69
2022/11/19 02:17:21;;;;;;;31.73;16.08;;;3.80;99.90;;;;;;5088959;28;20050;-69
2022/11/19 02:20:18;;;;;;;30.35;14.68;;;3.70;99.90;;;;;;5088365;28;20056;-68
2022/11/19 02:22:46;;;;;;;33.40;16.27;;;3.70;99.90;;;;;;5089549;28;20028;-68
2022/11/19 02:25:30;;;;;;;24.83;14.68;;;3.70;99.90;;;;;;5087894;28;20028;-68
2022/11/19 02:27:58;;;;;;;26.45;14.38;;;3.70;99.90;;;;;;5088644;28;20099;-69
2022/11/19 02:30:24;;;;;;;34.15;15.57;;;3.70;99.90;;;;;;5087146;28;20032;-70
2022/11/19 02:33:04;;;;;;;32.42;15.93;;;3.70;99.90;;;;;;5089490;28;20426;-70
2022/11/19 02:35:37;;;;;;;32.35;16.35;;;3.60;99.90;;;;;;5089791;28;20030;-69
2022/11/19 02:38:25;;;;;;;29.83;15.07;;;3.60;99.90;;;;;;5089612;28;20111;-68
2022/11/19 02:41:32;;;;;;;29.20;15.30;;;3.60;99.90;;;;;;5089003;28;20024;-70
2022/11/19 02:44:57;;;;;;;30.95;15.57;;;3.60;99.90;;;;;;5089470;28;20020;-69
2022/11/19 02:46:38;;;;;;;28.50;15.13;;;3.50;99.90;;;;;;5089626;28;20051;-70
2022/11/19 02:49:05;;;;;;;28.75;15.40;;;3.50;99.90;;;;;;5085512;28;20094;-69
2022/11/19 02:51:31;;;;;;;31.50;16.15;;;3.50;99.90;;;;;;5068480;28;20104;-70
2022/11/19 02:53:57;;;;;;;26.00;14.13;;;3.40;99.90;;;;;;5069686;28;20111;-70
2022/11/19 02:56:50;;;;;;;34.20;16.55;;;3.40;99.90;;;;;;5084240;28;20100;-70
2022/11/19 03:04:56;;;;;;;29.45;15.45;;;3.40;99.90;;;;;;5093006;28;20043;-69
2022/11/19 03:07:21;;;;;;;30.50;14.85;;;3.40;99.90;;;;;;5093509;28;20028;-71
2022/11/19 03:09:53;;;;;;;31.30;15.82;;;3.40;99.90;;;;;;5089709;28;20032;-69
2022/11/19 03:12:22;;;;;;;28.20;15.18;;;3.40;99.90;;;;;;5092535;28;20024;-69
2022/11/19 03:18:13;;;;;;;30.58;15.75;;;3.30;99.90;;;;;;5092443;28;20047;-69
2022/11/19 03:20:47;;;;;;;32.47;15.52;;;3.30;99.90;;;;;;5075803;28;20016;-69
2022/11/19 03:23:22;;;;;;;27.13;15.35;;;3.30;99.90;;;;;;5083641;28;20024;-69
2022/11/19 03:25:53;;;;;;;30.15;15.00;;;3.30;99.90;;;;;;5090101;28;20415;-69
2022/11/19 03:28:24;;;;;;;29.83;14.93;;;3.20;99.90;;;;;;5091675;28;20040;-68
2022/11/19 03:30:51;;;;;;;29.83;15.52;;;3.20;99.90;;;;;;5072057;28;20020;-69
2022/11/19 03:33:30;;;;;;;30.05;14.95;;;3.20;99.90;;;;;;5072179;28;20024;-68
2022/11/19 03:36:00;;;;;;;30.80;15.25;;;3.20;99.90;;;;;;5072017;28;20067;-70
2022/11/19 03:38:39;;;;;;;29.15;14.98;;;3.10;99.90;;;;;;5071697;28;20055;-69
2022/11/19 03:41:06;;;;;;;26.70;15.00;;;3.10;99.90;;;;;;5071228;28;20020;-70
2022/11/19 03:43:37;;;;;;;34.92;16.70;;;3.10;99.90;;;;;;5072837;28;20051;-69
2022/11/19 03:46:09;;;;;;;30.10;15.63;;;3.10;99.90;;;;;;5074774;28;20754;-70
2022/11/19 03:48:36;;;;;;;25.30;13.50;;;3.10;99.90;;;;;;5091888;28;20480;-69
2022/11/19 03:51:16;;;;;;;31.90;16.50;;;3.10;99.90;;;;;;5100675;28;20071;-70
2022/11/19 03:53:42;;;;;;;27.63;13.63;;;3.00;99.90;;;;;;5091353;28;20028;-69
2022/11/19 03:56:10;;;;;;;28.25;13.73;;;3.00;99.90;;;;;;5092558;28;20073;-69
2022/11/19 03:58:45;;;;;;;26.98;15.10;;;3.00;99.90;;;;;;5092911;28;20032;-70
2022/11/19 04:01:11;;;;;;;33.42;16.13;;;3.00;99.90;;;;;;5092014;28;20020;-70
2022/11/19 04:03:37;;;;;;;29.10;14.02;;;3.00;99.90;;;;;;5092707;28;20103;-70
2022/11/19 04:06:04;;;;;;;28.38;14.25;;;3.00;99.90;;;;;;5091752;28;20195;-69
2022/11/19 04:08:30;;;;;;;30.90;14.68;;;3.00;99.90;;;;;;5090644;28;20016;-69
2022/11/19 04:10:57;;;;;;;30.98;15.13;;;3.00;99.90;;;;;;5091480;28;20077;-71
2022/11/19 04:13:23;;;;;;;28.02;15.05;;;3.00;99.90;;;;;;5089921;28;20092;-69
2022/11/19 04:15:48;;;;;;;28.13;15.43;;;3.00;99.90;;;;;;5090012;28;20567;-70
2022/11/19 04:18:14;;;;;;;28.98;15.23;;;3.00;99.90;;;;;;5090970;28;20406;-69
2022/11/19 04:20:42;;;;;;;28.17;14.80;;;3.00;99.90;;;;;;5092513;28;20179;-69
2022/11/19 04:23:08;;;;;;;31.17;15.82;;;3.00;99.90;;;;;;5090170;28;20032;-70
2022/11/19 04:25:33;;;;;;;33.85;15.98;;;3.00;99.90;;;;;;5090989;28;20055;-70
2022/11/19 04:27:59;;;;;;;34.25;15.30;;;2.90;99.90;;;;;;5091400;28;20063;-70
2022/11/19 04:30:24;;;;;;;30.98;14.98;;;2.90;99.90;;;;;;5090656;28;20054;-69
2022/11/19 04:32:50;;;;;;;31.55;16.02;;;2.80;99.90;;;;;;5091212;28;20384;-69
2022/11/19 04:35:20;;;;;;;33.38;15.57;;;2.80;99.90;;;;;;5074295;28;20033;-69
2022/11/19 04:37:45;;;;;;;30.15;15.23;;;2.80;99.90;;;;;;5070747;28;20488;-69
2022/11/19 04:40:12;;;;;;;31.60;15.70;;;2.80;99.90;;;;;;5077141;28;20032;-69
2022/11/19 04:42:37;;;;;;;28.10;15.98;;;2.80;99.90;;;;;;5091081;28;20027;-70
2022/11/19 04:45:03;;;;;;;30.23;15.45;;;2.80;99.90;;;;;;5075310;28;20031;-70
2022/11/19 04:47:28;;;;;;;29.08;14.25;;;2.80;99.90;;;;;;5070751;28;20035;-70
2022/11/19 04:49:54;;;;;;;28.85;15.27;;;2.80;99.90;;;;;;5069766;28;20077;-70
2022/11/19 04:52:19;;;;;;;35.40;17.15;;;2.80;99.90;;;;;;5070453;28;20528;-68
2022/11/19 04:54:45;;;;;;;29.52;15.00;;;2.80;99.90;;;;;;5077179;28;20032;-70
2022/11/19 04:57:11;;;;;;;32.80;16.08;;;2.70;99.90;;;;;;5089684;28;20039;-70
2022/11/19 04:59:36;;;;;;;30.05;14.25;;;2.70;99.90;;;;;;5090421;28;20024;-69
2022/11/19 05:02:02;;;;;;;31.23;14.60;;;2.70;99.90;;;;;;5090129;28;20145;-70
2022/11/19 05:04:27;;;;;;;26.73;13.43;;;2.70;99.90;;;;;;5088728;28;20056;-70
2022/11/19 05:06:53;;;;;;;29.52;13.90;;;2.60;99.90;;;;;;5090431;28;20028;-70
2022/11/19 05:09:18;;;;;;;32.78;15.30;;;2.60;99.90;;;;;;5090765;28;20036;-71
2022/11/19 05:11:44;;;;;;;28.70;14.38;;;2.50;99.90;;;;;;5089440;28;20031;-70
2022/11/19 05:14:09;;;;;;;26.88;15.02;;;2.50;99.90;;;;;;5090114;28;20018;-70
2022/11/19 05:16:35;;;;;;;28.45;15.10;;;2.50;99.90;;;;;;5088735;28;20028;-70
2022/11/19 05:19:00;;;;;;;33.83;14.93;;;2.50;99.90;;;;;;5089266;28;20056;-69
2022/11/19 05:21:26;;;;;;;29.52;14.95;;;2.50;99.90;;;;;;5088720;28;20020;-70
2022/11/19 05:23:52;;;;;;;27.85;13.00;;;2.50;99.90;;;;;;5091366;28;20384;-70
2022/11/19 05:26:18;;;;;;;29.98;14.95;;;2.50;99.90;;;;;;5089746;28;20039;-69
2022/11/19 05:28:44;;;;;;;30.17;13.65;;;2.40;99.90;;;;;;5085931;28;20117;-69
2022/11/19 05:31:10;;;;;;;32.47;16.10;;;2.40;99.90;;;;;;5090240;28;20039;-70
2022/11/19 05:33:36;;;;;;;28.42;13.82;;;2.40;99.90;;;;;;5090173;28;20024;-70
2022/11/19 05:36:02;;;;;;;27.77;13.75;;;2.30;99.90;;;;;;5089262;28;20032;-69
2022/11/19 05:38:27;;;;;;;29.92;15.68;;;2.30;99.90;;;;;;5090476;28;20049;-69
2022/11/19 05:40:53;;;;;;;27.08;13.05;;;2.30;99.90;;;;;;5089508;28;20028;-69
2022/11/19 05:43:19;;;;;;;28.05;14.35;;;2.30;99.90;;;;;;5101541;28;20130;-70
2022/11/19 05:45:44;;;;;;;31.60;14.65;;;2.30;99.90;;;;;;5105225;28;20020;-70
2022/11/19 05:48:10;;;;;;;31.00;14.88;;;2.20;99.90;;;;;;5089979;28;20031;-69
2022/11/19 05:50:35;;;;;;;28.90;13.75;;;2.20;99.90;;;;;;5090222;28;20016;-70
2022/11/19 05:53:01;;;;;;;28.40;14.07;;;2.20;99.90;;;;;;5087332;28;20036;-69
2022/11/19 05:55:27;;;;;;;25.38;15.18;;;2.20;99.90;;;;;;5088667;28;20134;-68
2022/11/19 05:57:52;;;;;;;27.67;14.00;;;2.20;99.90;;;;;;5089064;28;20476;-70
2022/11/19 06:00:18;;;;;;;31.50;13.90;;;2.20;99.90;;;;;;5089054;28;20024;-69
2022/11/19 06:02:43;;;;;;;32.95;15.40;;;2.20;99.90;;;;;;5087778;28;20024;-69
2022/11/19 06:05:09;;;;;;;33.00;14.57;;;2.20;99.90;;;;;;5089580;28;20384;-69
2022/11/19 06:07:35;;;;;;;28.48;13.32;;;2.20;99.90;;;;;;5089333;28;20071;-70
2022/11/19 06:10:01;;;;;;;30.30;14.50;;;2.20;99.90;;;;;;5089819;28;20039;-69
2022/11/19 06:12:26;;;;;;;24.88;12.95;;;2.20;99.90;;;;;;5089772;28;20020;-69
2022/11/19 06:14:52;;;;;;;32.55;15.02;;;2.10;99.90;;;;;;5089489;28;20071;-68
2022/11/19 06:17:18;;;;;;;29.25;14.70;;;2.10;99.90;;;;;;5088170;28;20514;-70
2022/11/19 06:19:43;;;;;;;30.33;14.90;;;2.00;99.90;;;;;;5089572;28;20016;-70
2022/11/19 06:22:09;;;;;;;26.33;13.18;;;2.00;99.90;;;;;;5087885;28;20039;-69
2022/11/19 06:24:35;;;;;;;30.73;13.45;;;2.00;99.90;;;;;;5089351;28;20021;-69
2022/11/19 06:27:00;;;;;;;27.75;13.88;;;2.00;99.90;;;;;;5089729;28;20031;-69
2022/11/19 06:29:26;;;;;;;29.45;14.52;;;2.00;99.90;;;;;;5088364;28;20076;-70
2022/11/19 06:31:52;;;;;;;32.15;14.20;;;1.90;99.90;;;;;;5089677;28;20028;-69
2022/11/19 06:34:18;;;;;;;29.83;13.82;;;1.90;99.90;;;;;;5091668;28;20021;-70
2022/11/19 06:36:43;;;;;;;29.85;15.43;;;1.90;99.90;;;;;;5092807;28;20074;-70
2022/11/19 06:39:09;;;;;;;30.73;13.90;;;1.90;99.90;;;;;;5093631;28;20024;-70
2022/11/19 06:41:34;;;;;;;31.50;14.85;;;1.80;99.90;;;;;;5093336;28;20031;-69
2022/11/19 06:44:00;;;;;;;32.45;15.25;;;1.90;99.90;;;;;;5092681;28;20384;-69
2022/11/19 06:46:26;;;;;;;27.55;14.02;;;1.90;99.90;;;;;;5092277;28;20480;-69
2022/11/19 06:48:51;;;;;;;27.65;14.15;;;1.90;99.90;;;;;;5090445;28;20016;-69
2022/11/19 06:51:17;;;;;;;31.35;15.35;;;1.80;99.90;;;;;;5088933;28;20387;-68
2022/11/19 06:53:42;;;;;;;31.65;15.25;;;1.80;99.90;;;;;;5092144;28;20090;-70
2022/11/19 06:56:09;;;;;;;34.22;14.18;;;1.80;99.90;;;;;;5090867;28;20036;-69
2022/11/19 06:58:34;;;;;;;31.80;15.45;;;1.80;99.90;;;;;;5091013;28;20023;-69
2022/11/19 07:01:00;;;;;;;31.13;14.52;;;1.80;99.90;;;;;;5093719;28;20510;-71
2022/11/19 07:03:26;;;;;;;30.33;14.48;;;1.80;99.90;;;;;;5092799;28;20104;-69
2022/11/19 07:05:57;;;;;;;26.25;12.50;;;1.70;99.90;;;;;;5092941;28;20020;-69
2022/11/19 07:08:23;;;;;;;29.17;12.77;;;1.70;99.90;;;;;;5088693;28;20382;-70
2022/11/19 07:10:49;;;;;;;27.83;14.40;;;1.70;99.90;;;;;;5085747;28;20471;-70
2022/11/19 07:13:15;;;;;;;31.30;14.65;;;1.70;99.90;;;;;;5092761;28;20024;-71
2022/11/19 07:15:40;;;;;;;28.60;13.68;;;1.60;99.90;;;;;;5093668;28;20476;-69
2022/11/19 07:18:06;;;;;;;32.42;13.77;;;1.60;99.90;;;;;;5093310;28;20028;-71
2022/11/19 07:20:32;;;;;;;32.45;14.25;;;1.60;99.90;;;;;;5090175;28;20059;-70
2022/11/19 07:22:57;;;;;;;32.50;13.88;;;1.60;99.90;;;;;;5091540;28;20056;-71
2022/11/19 07:25:23;;;;;;;28.80;12.80;;;1.60;99.90;;;;;;5092515;28;20035;-69
2022/11/19 07:27:49;;;;;;;30.13;14.35;;;1.60;99.90;;;;;;5093041;28;20051;-70
2022/11/19 07:30:15;;;;;;;28.92;13.52;;;1.60;99.90;;;;;;5091801;28;20028;-68
2022/11/19 07:32:42;;;;;;;29.48;13.40;;;1.50;99.90;;;;;;5092424;28;20074;-70
2022/11/19 07:35:08;;;;;;;27.90;13.23;;;1.50;99.90;;;;;;5090652;28;20032;-70
2022/11/19 07:37:38;;;;;;;26.75;12.57;;;1.40;99.90;;;;;;5091577;28;20174;-71
2022/11/19 07:40:04;;;;;;;27.08;12.75;;;1.40;99.90;;;;;;5091745;28;20130;-70
2022/11/19 07:42:48;;;;;;;25.85;11.88;;;1.30;99.90;;;;;;5091930;28;20051;-71
2022/11/19 07:45:17;;;;;;;26.67;12.60;;;1.30;99.90;;;;;;5089904;28;20039;-69
2022/11/19 07:47:43;;;;;;;23.73;11.75;;;1.20;99.90;;;;;;5091555;28;20024;-71
2022/11/19 07:50:09;;;;;;;24.50;12.13;;;1.20;99.90;;;;;;5090682;28;20127;-71
2022/11/19 07:52:35;;;;;;;23.58;11.88;;;1.10;99.90;;;;;;5076422;28;20127;-69
2022/11/19 07:55:01;;;;;;;23.45;11.63;;;1.00;99.90;;;;;;5090959;28;20615;-70
2022/11/19 07:57:26;;;;;;;26.08;13.35;;;0.90;99.90;;;;;;5089815;28;20036;-70
2022/11/19 07:59:52;;;;;;;22.65;11.32;;;0.90;99.90;;;;;;5077425;28;20111;-69
2022/11/19 08:02:18;;;;;;;25.77;12.43;;;0.90;99.90;;;;;;5087465;28;20058;-69
2022/11/19 08:04:43;;;;;;;25.83;13.30;;;0.90;99.90;;;;;;5090779;28;20089;-70
2022/11/19 08:07:09;;;;;;;23.63;11.50;;;0.80;99.90;;;;;;5089722;28;20446;-68
2022/11/19 08:09:35;;;;;;;26.67;12.80;;;0.80;99.90;;;;;;5093349;28;20390;-69
2022/11/19 08:12:01;;;;;;;29.42;13.13;;;0.70;99.90;;;;;;5091743;28;20024;-68
2022/11/19 08:14:27;;;;;;;26.27;12.40;;;0.60;99.90;;;;;;5092328;28;20027;-68
2022/11/19 08:19:38;;;;;;;24.63;11.18;;;0.40;99.90;;;;;;5092117;28;20035;-68
2022/11/19 08:22:03;;;;;;;24.85;12.65;;;0.30;99.90;;;;;;5091764;28;20020;-70
2022/11/19 08:24:29;;;;;;;23.88;11.52;;;0.30;99.90;;;;;;5090532;28;20023;-71
2022/11/19 08:26:54;;;;;;;25.45;11.95;;;0.30;99.90;;;;;;5085400;28;20031;-70
2022/11/19 08:29:22;;;;;;;24.50;10.93;;;0.30;99.90;;;;;;5087800;28;20070;-71
2022/11/19 08:31:49;;;;;;;23.65;11.27;;;0.30;99.90;;;;;;5069948;28;20032;-67
2022/11/19 08:34:16;;;;;;;23.15;11.98;;;0.30;99.90;;;;;;5093365;28;20024;-68
2022/11/19 08:36:42;;;;;;;23.88;11.07;;;0.30;99.90;;;;;;5070796;28;20052;-70
2022/11/19 08:39:08;;;;;;;21.38;11.13;;;0.30;99.90;;;;;;5070736;28;20150;-71
2022/11/19 08:44:17;;;;;;;23.80;12.27;;;0.30;99.90;;;;;;5085008;28;20069;-68
2022/11/19 08:46:43;;;;;;;24.33;11.18;;;0.30;99.90;;;;;;5089748;28;20489;-73
2022/11/19 08:49:10;;;;;;;25.88;10.85;;;0.30;99.90;;;;;;5089769;28;20524;-71
2022/11/19 08:51:36;;;;;;;26.50;11.75;;;0.30;99.90;;;;;;5091292;28;20153;-74
2022/11/19 08:54:02;;;;;;;22.35;11.18;;;0.30;99.90;;;;;;5090651;28;20048;-70
2022/11/19 08:56:28;;;;;;;23.73;11.35;;;0.30;99.90;;;;;;5088193;28;20090;-70
2022/11/19 08:58:53;;;;;;;24.83;10.15;;;0.40;99.90;;;;;;5075381;28;20017;-72
2022/11/19 09:01:19;;;;;;;22.33;10.48;;;0.40;99.90;;;;;;5069228;28;20027;-69
2022/11/19 09:03:45;;;;;;;23.92;11.45;;;0.40;99.90;;;;;;5082342;28;20042;-68
2022/11/19 09:06:11;;;;;;;23.45;9.90;;;0.40;99.90;;;;;;5088947;28;20024;-67
2022/11/19 09:08:37;;;;;;;22.35;12.10;;;0.40;99.90;;;;;;5087748;28;20106;-68
2022/11/19 09:11:11;;;;;;;20.38;9.60;;;0.40;99.90;;;;;;5078260;28;20027;-68
2022/11/19 09:13:37;;;;;;;21.02;10.52;;;0.40;99.90;;;;;;5086806;28;20556;-68
2022/11/19 09:16:03;;;;;;;20.52;10.23;;;0.40;99.90;;;;;;5086795;28;20545;-70
2022/11/19 09:18:31;;;;;;;24.85;10.80;;;0.50;99.90;;;;;;5088636;28;20036;-69
2022/11/19 09:20:57;;;;;;;23.77;10.40;;;0.50;99.90;;;;;;5087824;28;20411;-67
2022/11/19 09:23:24;;;;;;;23.23;10.73;;;0.50;99.90;;;;;;5078228;28;20040;-66
2022/11/19 09:25:57;;;;;;;22.15;10.43;;;0.50;99.90;;;;;;5089139;28;20103;-70
2022/11/19 09:28:24;;;;;;;24.38;10.63;;;0.50;99.90;;;;;;5101642;28;20041;-68
2022/11/19 09:31:04;;;;;;;20.33;10.55;;;0.50;99.90;;;;;;5087048;28;20024;-66
2022/11/19 09:33:32;;;;;;;21.38;10.23;;;0.50;99.90;;;;;;5087239;28;20043;-68
2022/11/19 09:35:57;;;;;;;21.10;10.15;;;0.50;99.90;;;;;;5087630;28;20028;-72
2022/11/19 09:38:23;;;;;;;21.52;9.50;;;0.50;99.90;;;;;;5086705;28;20035;-68
2022/11/19 09:40:52;;;;;;;21.88;10.90;;;0.50;99.90;;;;;;5089237;28;20034;-68
2022/11/19 09:43:38;;;;;;;17.88;9.40;;;0.50;99.90;;;;;;5070329;28;20041;-67
2022/11/19 09:46:32;;;;;;;18.13;8.90;;;0.60;99.90;;;;;;5083047;28;20095;-66
2022/11/19 09:49:08;;;;;;;22.27;10.35;;;0.60;99.90;;;;;;5073535;28;20032;-67
2022/11/19 09:51:37;;;;;;;19.50;10.20;;;0.60;99.90;;;;;;5086391;28;20023;-69
2022/11/19 09:54:13;;;;;;;20.95;9.93;;;0.60;99.90;;;;;;5082032;28;20027;-71
2022/11/19 09:56:42;;;;;;;19.13;10.07;;;0.70;99.90;;;;;;5087334;28;20036;-70
2022/11/19 09:59:23;;;;;;;20.17;10.48;;;0.70;99.90;;;;;;5078938;28;20066;-69
2022/11/19 10:01:49;;;;;;;19.42;9.13;;;0.70;99.70;;;;;;5083363;28;20055;-68
2022/11/19 10:04:21;;;;;;;18.30;9.85;;;0.70;99.70;;;;;;5066864;28;20377;-70
2022/11/19 10:07:11;;;;;;;19.90;9.25;;;0.80;99.50;;;;;;5067480;28;20025;-69
2022/11/19 10:09:40;;;;;;;18.90;9.68;;;0.80;99.50;;;;;;5076005;28;20024;-68
2022/11/19 10:12:34;;;;;;;18.17;9.45;;;0.80;99.50;;;;;;5083655;28;20024;-69
2022/11/19 10:15:17;;;;;;;18.58;9.65;;;0.90;99.20;;;;;;5083495;28;20044;-68
2022/11/19 10:17:44;;;;;;;15.50;7.90;;;0.90;99.30;;;;;;5091660;28;20036;-70
2022/11/19 10:20:26;;;;;;;17.15;8.55;;;0.90;99.10;;;;;;5091988;28;20024;-68
2022/11/19 10:23:00;;;;;;;17.63;8.57;;;0.90;99.00;;;;;;5089916;28;20105;-68
2022/11/19 10:25:40;;;;;;;17.98;8.45;;;1.00;99.10;;;;;;5092619;28;20446;-68
2022/11/19 10:28:26;;;;;;;17.55;8.85;;;1.00;98.80;;;;;;5089784;28;20059;-68
2022/11/19 10:31:02;;;;;;;16.10;8.88;;;1.00;98.50;;;;;;5092572;28;20027;-68
2022/11/19 10:33:42;;;;;;;17.58;8.52;;;1.00;98.50;;;;;;5092644;28;20032;-69
2022/11/19 10:36:14;;;;;;;19.15;9.07;;;1.10;98.60;;;;;;5090420;28;20036;-69
2022/11/19 10:38:51;;;;;;;17.88;8.57;;;1.10;98.70;;;;;;5091533;28;20031;-68
2022/11/19 10:41:26;;;;;;;19.25;9.25;;;1.10;98.60;;;;;;5092569;28;20032;-69
2022/11/19 10:43:58;;;;;;;16.05;8.70;;;1.20;98.50;;;;;;5092078;28;20491;-68
2022/11/19 10:46:26;;;;;;;15.73;8.65;;;1.20;98.20;;;;;;5091486;28;20115;-68
2022/11/19 10:48:57;;;;;;;17.75;8.43;;;1.20;97.80;;;;;;5092394;28;20028;-68
2022/11/19 10:51:27;;;;;;;15.30;7.82;;;1.30;97.30;;;;;;5091082;28;20012;-69
2022/11/19 10:53:54;;;;;;;15.20;8.32;;;1.30;97.10;;;;;;5092064;28;20113;-69
2022/11/19 10:56:39;;;;;;;16.40;8.77;;;1.30;97.10;;;;;;5089448;28;20153;-69
2022/11/19 10:59:15;;;;;;;14.68;7.55;;;1.30;96.30;;;;;;5091947;28;20028;-69
2022/11/19 11:01:45;;;;;;;15.77;8.60;;;1.40;96.50;;;;;;5091692;28;20040;-69
2022/11/19 11:04:26;;;;;;;16.42;8.40;;;1.40;96.40;;;;;;5091997;28;20421;-68
2022/11/19 11:06:57;;;;;;;15.48;8.15;;;1.40;96.10;;;;;;5090101;28;20020;-69
2022/11/19 11:09:29;;;;;;;15.13;7.68;;;1.40;96.10;;;;;;5092436;28;20081;-69
2022/11/19 11:14:53;;;;;;;18.33;8.02;;;1.40;95.60;;;;;;5091422;28;20036;-69
2022/11/19 11:17:25;;;;;;;15.25;7.40;;;1.50;95.90;;;;;;5068804;28;20502;-68
2022/11/19 11:20:05;;;;;;;14.02;7.60;;;1.50;95.80;;;;;;5080225;28;20018;-69
2022/11/19 11:22:32;;;;;;;16.02;7.05;;;1.60;95.50;;;;;;5090985;28;20055;-68
2022/11/19 11:24:59;;;;;;;15.85;7.75;;;1.60;95.40;;;;;;5089477;28;20028;-69
2022/11/19 11:27:32;;;;;;;14.95;6.88;;;1.60;95.10;;;;;;5091258;28;20028;-68
2022/11/19 11:30:24;;;;;;;13.93;6.78;;;1.60;95.30;;;;;;5090561;28;20036;-68
2022/11/19 11:32:51;;;;;;;14.30;7.60;;;1.70;95.20;;;;;;5087502;28;20130;-69
2022/11/19 11:35:37;;;;;;;13.00;6.95;;;1.70;94.80;;;;;;5090444;28;20107;-69
2022/11/19 11:38:04;;;;;;;14.82;6.70;;;1.70;94.40;;;;;;5090063;28;20225;-66
2022/11/19 11:40:30;;;;;;;14.20;6.07;;;1.70;93.60;;;;;;5081276;28;20021;-70
2022/11/19 11:42:56;;;;;;;12.32;7.07;;;1.70;93.80;;;;;;5068811;28;20468;-69
2022/11/19 11:45:31;;;;;;;11.43;6.53;;;1.70;94.00;;;;;;5087468;28;20025;-70
2022/11/19 11:48:02;;;;;;;11.63;5.88;;;1.80;94.00;;;;;;5090602;28;20028;-69
2022/11/19 11:50:28;;;;;;;12.82;6.47;;;1.80;93.80;;;;;;5090242;28;20024;-68
2022/11/19 11:52:56;;;;;;;12.90;6.47;;;1.80;93.50;;;;;;5090155;28;20023;-69
2022/11/19 11:55:22;;;;;;;12.90;7.00;;;1.80;93.00;;;;;;5088725;28;20074;-68
2022/11/19 11:57:56;;;;;;;11.88;6.20;;;1.90;93.20;;;;;;5090184;28;20036;-65
2022/11/19 12:00:36;;;;;;;10.95;6.15;;;1.90;92.50;;;;;;5088209;28;20028;-74
2022/11/19 12:03:05;;;;;;;14.73;6.80;;;2.00;91.90;;;;;;5089831;28;20028;-73
2022/11/19 12:06:09;;;;;;;11.85;6.30;;;2.00;91.90;;;;;;5087090;28;20233;-70
2022/11/19 12:08:45;;;;;;;10.85;6.03;;;2.00;91.60;;;;;;5088928;28;20071;-70
2022/11/19 12:11:19;;;;;;;10.23;5.55;;;2.10;91.80;;;;;;5090369;28;20111;-70
2022/11/19 12:14:05;;;;;;;11.25;5.57;;;2.10;91.90;;;;;;5089457;28;20028;-71
2022/11/19 12:16:49;;;;;;;9.65;5.72;;;2.10;91.80;;;;;;5089111;28;20087;-71
2022/11/19 12:19:53;;;;;;;10.23;5.78;;;2.10;91.80;;;;;;5089552;28;20028;-71
2022/11/19 12:22:35;;;;;;;12.38;6.22;;;2.20;91.90;;;;;;5047949;28;20033;-69
2022/11/19 12:25:17;;;;;;;10.18;5.30;;;2.20;91.80;;;;;;5047611;28;20047;-69
2022/11/19 12:27:51;;;;;;;11.00;5.90;;;2.20;91.40;;;;;;5076007;28;20039;-69
2022/11/19 12:30:21;;;;;;;10.25;5.45;;;2.20;91.30;;;;;;5089665;28;20123;-69
2022/11/19 12:33:10;;;;;;;12.80;6.53;;;2.20;91.10;;;;;;5087143;28;20547;-68
2022/11/19 12:35:51;;;;;;;11.07;5.80;;;2.30;90.60;;;;;;5091110;28;20035;-70
2022/11/19 12:38:26;;;;;;;11.00;5.32;;;2.30;90.20;;;;;;5082642;28;20024;-68
2022/11/19 12:41:16;;;;;;;11.05;4.90;;;2.30;89.90;;;;;;5089369;28;20036;-69
2022/11/19 12:43:59;;;;;;;9.55;5.20;;;2.40;88.60;;;;;;5090514;28;20107;-68
2022/11/19 12:46:36;;;;;;;9.18;4.88;;;2.40;88.20;;;;;;5089772;28;20083;-69
2022/11/19 12:49:25;;;;;;;8.13;4.45;;;2.40;87.50;;;;;;5091104;28;20031;-69
2022/11/19 12:52:28;;;;;;;8.93;4.63;;;2.40;87.40;;;;;;5090355;28;20016;-70
2022/11/19 12:55:03;;;;;;;9.18;4.78;;;2.50;87.20;;;;;;5056054;28;20123;-68
2022/11/19 12:57:40;;;;;;;6.82;4.18;;;2.50;85.20;;;;;;5089143;28;20039;-68
2022/11/19 13:00:18;;;;;;;10.70;4.63;;;2.50;85.00;;;;;;5090170;28;20027;-69
2022/11/19 13:03:11;;;;;;;9.90;5.05;;;2.50;85.80;;;;;;5090395;28;20024;-68
2022/11/19 13:06:01;;;;;;;10.00;4.55;;;2.60;85.10;;;;;;5090339;28;20028;-69
2022/11/19 13:08:35;;;;;;;8.10;4.40;;;2.50;85.20;;;;;;5090624;28;20027;-70
2022/11/19 13:11:04;;;;;;;9.05;4.88;;;2.50;84.60;;;;;;5089787;28;20013;-70
2022/11/19 13:13:32;;;;;;;9.20;3.80;;;2.60;82.90;;;;;;5091363;28;20038;-70
2022/11/19 13:16:20;;;;;;;9.13;3.95;;;2.60;83.00;;;;;;5089541;28;20054;-68